Time;durP1;ratioP1;P1;durP2;ratioP2;P2;SDS_P1;SDS_P2;PMS_P1;PMS_P2;Temp;Humidity;BMP_temperature;BMP_pressure;BME280_temperature;BME280_humidity;BME280_pressure;Samples;Min_cycle;Max_cycle;Signal;HPM_P1;HPM_P2
2021/05/14 00:01:24;;;;;;;28.53;12.60;;;11.60;98.30;;;;;;4115932;28;20962;-84
2021/05/14 00:03:27;;;;;;;25.67;12.57;;;11.60;98.30;;;;;;4115816;28;20487;-84
2021/05/14 00:05:29;;;;;;;22.60;14.27;;;11.60;98.30;;;;;;4113246;28;21330;-84
2021/05/14 00:07:32;;;;;;;23.83;13.10;;;11.50;98.30;;;;;;4113789;28;20468;-84
2021/05/14 00:09:35;;;;;;;20.67;13.40;;;11.40;98.30;;;;;;4117691;28;20472;-84
2021/05/14 00:11:38;;;;;;;21.80;14.40;;;11.50;98.30;;;;;;4118581;28;20460;-84
2021/05/14 00:13:40;;;;;;;21.53;13.97;;;11.50;98.30;;;;;;4109990;28;20836;-83
2021/05/14 00:15:43;;;;;;;23.30;14.00;;;11.50;98.30;;;;;;4117659;28;20570;-84
2021/05/14 00:17:45;;;;;;;25.53;14.23;;;11.60;98.30;;;;;;4115433;28;20833;-84
2021/05/14 00:19:48;;;;;;;24.23;16.50;;;11.50;98.30;;;;;;4114977;28;20554;-83
2021/05/14 00:21:51;;;;;;;20.27;14.83;;;11.50;98.30;;;;;;4116260;28;20467;-84
2021/05/14 00:23:54;;;;;;;20.00;14.23;;;11.60;98.30;;;;;;4115274;28;20495;-84
2021/05/14 00:25:57;;;;;;;26.60;16.00;;;11.60;98.30;;;;;;4114849;28;20953;-83
2021/05/14 00:28:00;;;;;;;27.40;15.97;;;11.50;98.30;;;;;;4110279;28;20490;-83
2021/05/14 00:30:03;;;;;;;28.73;15.07;;;11.50;98.30;;;;;;4110779;28;20490;-83
2021/05/14 00:32:06;;;;;;;26.33;15.10;;;11.50;98.30;;;;;;4111236;28;20463;-83
2021/05/14 00:34:09;;;;;;;20.37;14.60;;;11.50;98.30;;;;;;4116957;28;20500;-83
2021/05/14 00:36:11;;;;;;;19.80;14.90;;;11.50;98.30;;;;;;4109794;28;20468;-83
2021/05/14 00:38:14;;;;;;;21.53;14.23;;;11.60;98.30;;;;;;4113960;28;20813;-83
2021/05/14 00:40:16;;;;;;;28.53;15.00;;;11.50;98.30;;;;;;4113402;28;20494;-83
2021/05/14 00:42:19;;;;;;;22.83;14.20;;;11.50;98.30;;;;;;4116321;28;20478;-84
2021/05/14 00:44:27;;;;;;;20.83;13.40;;;11.60;98.30;;;;;;4115851;28;20988;-84
2021/05/14 00:46:29;;;;;;;19.90;13.23;;;11.60;98.30;;;;;;4114948;28;20558;-83
2021/05/14 00:48:31;;;;;;;23.57;13.23;;;11.60;98.30;;;;;;4116248;28;20976;-83
2021/05/14 00:50:34;;;;;;;18.23;13.50;;;11.60;98.30;;;;;;4110311;28;20468;-83
2021/05/14 00:52:36;;;;;;;21.13;13.87;;;11.60;98.30;;;;;;4114812;28;20479;-84
2021/05/14 00:54:39;;;;;;;19.70;13.37;;;11.60;98.30;;;;;;4113043;28;20477;-84
2021/05/14 00:56:43;;;;;;;22.43;12.90;;;11.60;98.30;;;;;;4115549;28;20478;-84
2021/05/14 00:58:45;;;;;;;18.07;13.97;;;11.60;98.30;;;;;;4114235;28;20483;-84
2021/05/14 01:00:48;;;;;;;18.77;13.30;;;11.60;98.30;;;;;;4116802;28;20511;-83
2021/05/14 01:02:52;;;;;;;15.97;13.27;;;11.60;98.30;;;;;;4117750;28;20583;-83
2021/05/14 01:04:54;;;;;;;18.23;12.10;;;11.60;98.30;;;;;;4117658;28;20587;-84
2021/05/14 01:06:57;;;;;;;20.63;11.60;;;11.60;98.30;;;;;;4112586;28;20476;-84
2021/05/14 01:09:00;;;;;;;17.30;12.40;;;11.60;98.30;;;;;;4116925;28;20476;-83
2021/05/14 01:11:04;;;;;;;17.70;11.63;;;11.60;98.30;;;;;;4118959;28;20556;-83
2021/05/14 01:13:06;;;;;;;19.80;12.63;;;11.50;98.30;;;;;;4120038;28;20479;-83
2021/05/14 01:15:10;;;;;;;15.13;11.77;;;11.40;98.30;;;;;;4120327;28;20560;-83
2021/05/14 01:17:13;;;;;;;17.37;12.17;;;11.40;98.30;;;;;;4120217;28;20622;-84
2021/05/14 01:19:15;;;;;;;16.60;12.50;;;11.40;98.30;;;;;;4120857;28;20471;-84
2021/05/14 01:21:19;;;;;;;16.70;11.50;;;11.40;98.30;;;;;;4121950;28;20486;-83
2021/05/14 01:23:22;;;;;;;17.30;11.93;;;11.40;98.30;;;;;;4114441;28;20495;-83
2021/05/14 01:25:24;;;;;;;19.20;11.30;;;11.40;98.30;;;;;;4118984;28;20492;-84
2021/05/14 01:27:27;;;;;;;21.70;13.23;;;11.50;98.30;;;;;;4116714;28;20464;-83
2021/05/14 01:29:29;;;;;;;16.17;11.27;;;11.40;98.30;;;;;;4117401;28;20476;-83
2021/05/14 01:31:32;;;;;;;19.10;11.87;;;11.40;98.30;;;;;;4116623;28;20468;-83
2021/05/14 01:33:35;;;;;;;19.67;12.60;;;11.40;98.30;;;;;;4117255;28;20491;-83
2021/05/14 01:35:37;;;;;;;15.57;11.20;;;11.40;98.30;;;;;;4117171;28;20500;-83
2021/05/14 01:37:41;;;;;;;18.83;12.10;;;11.40;98.30;;;;;;4113742;28;20835;-83
2021/05/14 01:39:44;;;;;;;22.80;12.70;;;11.40;98.30;;;;;;4119550;28;20492;-83
2021/05/14 01:41:47;;;;;;;25.40;13.60;;;11.30;98.30;;;;;;4117230;28;20460;-84
2021/05/14 01:43:49;;;;;;;20.50;13.20;;;11.30;98.30;;;;;;4114422;28;20927;-84
2021/05/14 01:45:52;;;;;;;19.10;13.07;;;11.20;98.30;;;;;;4116208;28;20468;-83
2021/05/14 01:47:54;;;;;;;25.43;14.97;;;11.20;98.30;;;;;;4116031;28;21003;-83
2021/05/14 01:49:57;;;;;;;20.47;14.37;;;11.20;98.30;;;;;;4117601;28;20630;-84
2021/05/14 01:51:59;;;;;;;19.50;13.20;;;11.20;98.30;;;;;;4116402;28;20886;-83
2021/05/14 01:54:03;;;;;;;25.50;13.43;;;11.20;98.30;;;;;;4115537;28;21224;-84
2021/05/14 01:56:05;;;;;;;22.87;12.93;;;11.20;98.30;;;;;;4117948;28;20467;-83
2021/05/14 01:58:08;;;;;;;23.47;14.63;;;11.20;98.30;;;;;;4115808;28;20555;-84
2021/05/14 02:00:12;;;;;;;24.33;15.27;;;11.20;98.30;;;;;;4117741;28;20495;-83
2021/05/14 02:02:18;;;;;;;25.57;15.20;;;11.30;98.30;;;;;;4118704;28;20491;-83
2021/05/14 02:04:21;;;;;;;31.53;15.00;;;11.30;98.30;;;;;;4118593;28;20522;-84
2021/05/14 02:06:23;;;;;;;26.77;15.20;;;11.30;98.30;;;;;;4117897;28;20472;-83
2021/05/14 02:08:26;;;;;;;24.07;15.30;;;11.30;98.30;;;;;;4115886;28;20460;-84
2021/05/14 02:10:29;;;;;;;22.40;15.40;;;11.30;98.30;;;;;;4116692;28;20539;-84
2021/05/14 02:12:31;;;;;;;20.40;15.13;;;11.30;98.30;;;;;;4115268;28;20464;-83
2021/05/14 02:14:34;;;;;;;27.57;14.60;;;11.40;98.30;;;;;;4113903;28;20556;-84
2021/05/14 02:16:36;;;;;;;21.77;15.33;;;11.30;98.30;;;;;;4118000;28;20463;-84
2021/05/14 02:18:39;;;;;;;27.03;15.10;;;11.30;98.30;;;;;;4117149;28;20558;-84
2021/05/14 02:20:42;;;;;;;25.70;15.40;;;11.30;98.30;;;;;;4117547;28;20472;-84
2021/05/14 02:22:45;;;;;;;19.80;16.77;;;11.30;98.30;;;;;;4114191;28;20503;-83
2021/05/14 02:24:49;;;;;;;28.23;17.60;;;11.40;98.30;;;;;;4115376;28;20471;-83
2021/05/14 02:26:53;;;;;;;23.40;17.70;;;11.40;98.30;;;;;;4110422;28;20498;-84
2021/05/14 02:28:55;;;;;;;26.07;15.60;;;11.40;98.30;;;;;;4111718;28;20464;-83
2021/05/14 02:30:58;;;;;;;21.43;15.93;;;11.30;98.30;;;;;;4108931;28;20503;-83
2021/05/14 02:33:00;;;;;;;24.00;14.70;;;11.30;98.30;;;;;;4110654;28;21004;-83
2021/05/14 02:35:03;;;;;;;25.40;15.17;;;11.30;98.30;;;;;;4115636;28;20476;-84
2021/05/14 02:37:06;;;;;;;24.73;15.87;;;11.40;98.30;;;;;;4109037;28;20475;-82
2021/05/14 02:39:10;;;;;;;22.50;15.10;;;11.40;98.30;;;;;;4116040;28;20722;-83
2021/05/14 02:41:12;;;;;;;23.50;15.87;;;11.40;98.30;;;;;;4112515;28;20504;-83
2021/05/14 02:43:16;;;;;;;19.53;14.80;;;11.40;98.30;;;;;;4111928;28;20520;-83
2021/05/14 02:45:19;;;;;;;20.90;15.07;;;11.40;98.30;;;;;;4115109;28;20468;-83
2021/05/14 02:47:21;;;;;;;20.57;14.40;;;11.30;98.30;;;;;;4112964;28;20478;-83
2021/05/14 02:49:24;;;;;;;25.47;15.77;;;11.20;98.30;;;;;;4115681;28;20472;-83
2021/05/14 02:51:26;;;;;;;19.50;15.33;;;11.20;98.30;;;;;;4113282;28;20519;-83
2021/05/14 02:53:29;;;;;;;24.43;15.83;;;11.20;98.30;;;;;;4113437;28;20510;-83
2021/05/14 02:55:31;;;;;;;26.40;14.60;;;11.20;98.30;;;;;;4113677;28;20473;-83
2021/05/14 02:57:33;;;;;;;18.40;14.20;;;11.20;98.30;;;;;;4114716;28;20467;-83
2021/05/14 02:59:37;;;;;;;24.90;14.70;;;11.20;98.30;;;;;;4109118;28;20477;-83
2021/05/14 03:01:40;;;;;;;25.37;15.97;;;11.10;98.30;;;;;;4114382;28;21333;-83
2021/05/14 03:03:42;;;;;;;25.97;15.73;;;11.10;98.30;;;;;;4114413;28;20826;-83
2021/05/14 03:05:44;;;;;;;22.00;16.10;;;11.10;98.30;;;;;;4115476;28;20980;-83
2021/05/14 03:07:47;;;;;;;25.80;16.13;;;11.10;98.30;;;;;;4109272;28;20475;-83
2021/05/14 03:09:49;;;;;;;30.50;17.23;;;11.10;98.30;;;;;;4114332;28;20906;-83
2021/05/14 03:11:51;;;;;;;23.37;15.47;;;11.00;98.30;;;;;;4109980;28;20464;-83
2021/05/14 03:13:54;;;;;;;23.83;15.90;;;10.90;98.30;;;;;;4111782;28;21224;-83
2021/05/14 03:15:58;;;;;;;25.17;17.10;;;11.00;98.30;;;;;;4113050;28;20528;-82
2021/05/14 03:18:01;;;;;;;29.50;17.00;;;11.00;98.30;;;;;;4114136;28;20552;-82
2021/05/14 03:20:05;;;;;;;27.73;16.50;;;11.00;98.30;;;;;;4115777;28;20483;-81
2021/05/14 03:22:08;;;;;;;23.23;15.73;;;11.00;98.30;;;;;;4115729;28;20460;-83
2021/05/14 03:24:10;;;;;;;27.80;16.93;;;11.10;98.30;;;;;;4114701;28;20492;-82
2021/05/14 03:26:13;;;;;;;22.73;15.80;;;11.00;98.30;;;;;;4113104;28;21344;-82
2021/05/14 03:28:16;;;;;;;29.20;18.03;;;11.00;98.30;;;;;;4114208;28;20476;-82
2021/05/14 03:30:18;;;;;;;33.73;18.03;;;11.00;98.30;;;;;;4112031;28;20472;-82
2021/05/14 03:32:22;;;;;;;25.90;17.40;;;11.00;98.30;;;;;;4111240;28;20486;-82
2021/05/14 03:36:34;;;;;;;27.03;16.57;;;11.00;98.30;;;;;;4094015;28;20496;-83
2021/05/14 03:38:36;;;;;;;26.57;17.27;;;11.00;98.30;;;;;;4084165;29;21199;-83
2021/05/14 03:40:40;;;;;;;22.43;17.90;;;11.00;98.30;;;;;;4094017;28;20525;-83
2021/05/14 03:42:43;;;;;;;28.40;17.33;;;11.00;98.30;;;;;;4097378;28;20473;-83
2021/05/14 03:44:45;;;;;;;25.73;16.23;;;11.00;98.30;;;;;;4087780;28;20553;-83
2021/05/14 03:46:48;;;;;;;27.03;15.80;;;11.00;98.30;;;;;;4088070;29;20501;-84
2021/05/14 03:48:52;;;;;;;36.20;17.60;;;11.00;98.30;;;;;;4088375;28;20466;-84
2021/05/14 03:50:54;;;;;;;27.83;15.97;;;11.00;98.30;;;;;;4094631;28;20493;-85
2021/05/14 03:52:58;;;;;;;27.77;17.57;;;10.90;98.30;;;;;;4093049;29;20510;-84
2021/05/14 03:55:02;;;;;;;31.30;17.77;;;11.00;98.30;;;;;;4094543;29;20496;-84
2021/05/14 03:57:05;;;;;;;31.73;16.20;;;11.00;98.30;;;;;;4091041;29;20502;-83
2021/05/14 03:59:08;;;;;;;26.93;15.67;;;11.00;98.30;;;;;;4088687;28;20556;-83
2021/05/14 04:01:11;;;;;;;25.13;16.97;;;11.00;98.30;;;;;;4095900;28;20590;-83
2021/05/14 04:03:15;;;;;;;31.37;16.50;;;11.10;98.30;;;;;;4094031;28;20486;-85
2021/05/14 04:05:19;;;;;;;22.93;16.23;;;11.10;98.30;;;;;;4089913;29;20848;-83
2021/05/14 04:07:22;;;;;;;26.00;16.17;;;11.10;98.30;;;;;;4087643;29;20837;-82
2021/05/14 04:09:30;;;;;;;20.37;15.77;;;11.10;98.30;;;;;;4088454;29;21182;-84
2021/05/14 04:16:10;;;;;;;27.77;14.83;;;11.20;98.30;;;;;;4087692;29;20984;-83
2021/05/14 04:18:13;;;;;;;30.37;15.87;;;11.30;98.30;;;;;;4085767;28;20556;-84
2021/05/14 04:20:16;;;;;;;21.30;14.90;;;11.30;98.30;;;;;;4084086;29;20509;-83
2021/05/14 04:22:23;;;;;;;22.93;16.03;;;11.30;98.30;;;;;;4089054;29;20544;-83
2021/05/14 04:24:27;;;;;;;24.80;14.80;;;11.30;98.30;;;;;;4084043;28;21011;-82
2021/05/14 04:26:29;;;;;;;23.40;15.40;;;11.30;98.30;;;;;;4088723;29;21157;-82
2021/05/14 04:28:32;;;;;;;20.17;14.43;;;11.20;98.30;;;;;;4092374;28;20473;-83
2021/05/14 04:30:34;;;;;;;22.07;13.40;;;11.20;98.30;;;;;;4091583;29;20994;-84
2021/05/14 04:32:37;;;;;;;20.57;13.40;;;11.10;98.30;;;;;;4097596;28;20457;-83
2021/05/14 04:34:40;;;;;;;20.20;13.30;;;11.10;98.30;;;;;;4089816;29;23255;-84
2021/05/14 04:36:43;;;;;;;22.10;13.50;;;11.10;98.30;;;;;;4097486;28;20974;-84
2021/05/14 04:38:46;;;;;;;28.20;13.27;;;11.00;98.30;;;;;;4097341;28;20530;-83
2021/05/14 04:40:48;;;;;;;23.63;14.53;;;10.80;98.30;;;;;;4094382;28;20577;-83
2021/05/14 04:42:51;;;;;;;29.07;13.07;;;10.90;98.30;;;;;;4095819;29;20469;-85
2021/05/14 04:44:55;;;;;;;17.43;11.50;;;10.70;98.30;;;;;;4093333;29;20475;-86
2021/05/14 04:46:58;;;;;;;18.40;12.43;;;10.60;98.30;;;;;;4098487;28;20472;-84
2021/05/14 04:49:00;;;;;;;20.87;11.43;;;10.70;98.30;;;;;;4093128;29;20490;-83
2021/05/14 04:51:03;;;;;;;20.17;13.07;;;10.70;98.30;;;;;;4092137;29;20483;-84
2021/05/14 04:53:07;;;;;;;21.80;12.10;;;10.70;98.30;;;;;;4089720;29;20862;-86
2021/05/14 04:55:12;;;;;;;20.27;11.90;;;10.70;98.30;;;;;;4090902;29;20476;-84
2021/05/14 04:57:14;;;;;;;21.37;11.87;;;10.60;98.30;;;;;;4089983;29;20560;-86
2021/05/14 04:59:17;;;;;;;20.67;13.43;;;10.60;98.30;;;;;;4083537;29;20469;-84
2021/05/14 05:01:19;;;;;;;22.53;12.83;;;10.50;98.30;;;;;;4088479;29;21106;-84
2021/05/14 05:03:22;;;;;;;21.87;12.13;;;10.60;98.30;;;;;;4093357;28;20842;-84
2021/05/14 05:05:25;;;;;;;62.73;36.30;;;10.70;98.30;;;;;;4096377;28;21164;-84
2021/05/14 05:07:28;;;;;;;46.37;27.77;;;10.70;98.30;;;;;;4085016;29;20742;-84
2021/05/14 05:09:31;;;;;;;30.87;18.10;;;10.80;98.30;;;;;;4086022;29;21051;-84
2021/05/14 05:11:34;;;;;;;21.33;13.50;;;10.80;98.30;;;;;;4088745;29;20471;-84
2021/05/14 05:13:37;;;;;;;22.20;12.70;;;10.80;98.30;;;;;;4093296;29;20496;-84
2021/05/14 05:15:39;;;;;;;24.30;11.83;;;10.80;98.30;;;;;;4093921;28;20856;-84
2021/05/14 05:17:42;;;;;;;51.37;30.87;;;10.70;98.30;;;;;;4097035;28;20475;-84
2021/05/14 05:19:45;;;;;;;43.83;26.13;;;10.60;98.30;;;;;;4101265;28;20842;-85
2021/05/14 05:21:49;;;;;;;26.03;15.43;;;10.60;98.30;;;;;;4101658;29;20571;-83
2021/05/14 05:23:51;;;;;;;18.37;11.90;;;10.70;98.30;;;;;;4101660;29;20493;-84
2021/05/14 05:25:54;;;;;;;23.10;12.40;;;10.70;98.30;;;;;;4098895;29;20518;-84
2021/05/14 05:27:57;;;;;;;19.27;10.90;;;10.80;98.30;;;;;;4090128;29;20842;-86
2021/05/14 05:30:00;;;;;;;33.20;13.20;;;10.90;98.30;;;;;;4088352;29;20467;-83
2021/05/14 05:32:02;;;;;;;15.57;11.00;;;11.00;98.30;;;;;;4093220;29;20538;-86
2021/05/14 05:34:06;;;;;;;28.17;11.30;;;11.00;98.30;;;;;;4095224;28;20557;-84
2021/05/14 05:36:09;;;;;;;20.10;11.27;;;10.90;98.30;;;;;;4094920;28;20496;-83
2021/05/14 05:38:15;;;;;;;15.40;11.10;;;10.80;98.30;;;;;;4096528;29;20480;-81
2021/05/14 05:40:18;;;;;;;18.57;11.60;;;10.80;98.30;;;;;;4094575;29;20529;-82
2021/05/14 05:42:21;;;;;;;20.23;11.03;;;10.80;98.30;;;;;;4090922;29;20579;-82
2021/05/14 05:44:24;;;;;;;16.40;10.50;;;10.80;98.30;;;;;;4093618;29;20497;-82
2021/05/14 05:46:27;;;;;;;18.43;10.47;;;10.90;98.30;;;;;;4094150;29;20475;-85
2021/05/14 05:48:29;;;;;;;18.63;11.30;;;10.90;98.30;;;;;;4094815;28;20474;-82
2021/05/14 05:50:32;;;;;;;18.03;10.40;;;10.80;98.30;;;;;;4095005;29;20468;-82
2021/05/14 05:52:34;;;;;;;16.50;11.13;;;10.80;98.30;;;;;;4097521;28;20481;-82
2021/05/14 05:54:36;;;;;;;20.50;9.87;;;10.80;98.30;;;;;;4093788;29;20532;-81
2021/05/14 05:56:39;;;;;;;26.80;9.90;;;10.80;98.30;;;;;;4095099;28;20488;-85
2021/05/14 05:58:41;;;;;;;17.63;10.80;;;10.80;98.30;;;;;;4097534;28;20473;-82
2021/05/14 06:00:45;;;;;;;17.20;10.40;;;10.70;98.30;;;;;;4097193;29;20480;-84
2021/05/14 06:02:47;;;;;;;15.33;10.40;;;10.60;98.30;;;;;;4094032;28;21017;-82
2021/05/14 06:04:50;;;;;;;19.87;10.60;;;10.60;98.30;;;;;;4096832;29;20477;-82
2021/05/14 06:06:52;;;;;;;20.50;10.60;;;10.60;98.30;;;;;;4095796;28;20812;-82
2021/05/14 06:08:54;;;;;;;25.63;10.47;;;10.70;98.30;;;;;;4096367;28;20473;-82
2021/05/14 06:10:57;;;;;;;26.03;10.20;;;10.60;98.30;;;;;;4094642;29;20491;-83
2021/05/14 06:12:59;;;;;;;13.80;9.90;;;10.60;98.30;;;;;;4093449;28;20540;-82
2021/05/14 06:15:02;;;;;;;25.77;10.60;;;10.60;98.30;;;;;;4096377;29;20480;-81
2021/05/14 06:17:12;;;;;;;18.23;10.00;;;10.70;98.30;;;;;;4092297;29;20473;-82
2021/05/14 06:19:17;;;;;;;16.13;10.90;;;10.70;98.30;;;;;;4091662;28;20477;-82
2021/05/14 06:21:22;;;;;;;22.60;11.73;;;10.80;98.30;;;;;;4088534;28;20480;-81
2021/05/14 06:23:56;;;;;;;20.73;10.67;;;10.80;98.30;;;;;;4088086;29;20919;-82
2021/05/14 06:26:00;;;;;;;14.53;9.17;;;10.90;98.30;;;;;;4088165;29;20476;-81
2021/05/14 06:28:06;;;;;;;15.40;10.13;;;10.90;98.30;;;;;;4077829;29;20541;-84
2021/05/14 06:30:10;;;;;;;32.43;18.03;;;11.10;98.30;;;;;;4095615;29;20480;-82
2021/05/14 06:32:13;;;;;;;70.50;40.93;;;11.10;98.30;;;;;;4095870;29;20477;-83
2021/05/14 06:34:20;;;;;;;18.30;11.90;;;11.10;98.30;;;;;;4086655;29;20478;-83
2021/05/14 06:36:27;;;;;;;17.73;10.37;;;11.10;98.30;;;;;;4091763;29;20563;-82
2021/05/14 06:38:30;;;;;;;20.07;12.07;;;11.10;98.30;;;;;;4087357;29;20849;-81
2021/05/14 06:40:33;;;;;;;21.30;11.33;;;11.00;98.30;;;;;;4090063;29;20473;-82
2021/05/14 06:42:35;;;;;;;18.27;10.57;;;11.00;98.30;;;;;;4086482;29;20489;-82
2021/05/14 06:44:38;;;;;;;20.30;10.93;;;11.20;98.30;;;;;;4087976;29;20564;-82
2021/05/14 06:46:43;;;;;;;22.10;10.13;;;11.20;98.30;;;;;;4087577;28;20470;-81
2021/05/14 06:48:47;;;;;;;21.40;10.87;;;11.10;98.30;;;;;;4090189;28;20485;-81
2021/05/14 06:50:49;;;;;;;15.83;9.20;;;11.10;98.30;;;;;;4089936;29;20825;-85
2021/05/14 06:52:51;;;;;;;17.30;10.53;;;11.10;98.30;;;;;;4089456;28;20837;-81
2021/05/14 06:54:54;;;;;;;15.33;10.70;;;11.10;98.30;;;;;;4090986;28;20479;-84
2021/05/14 06:56:56;;;;;;;19.50;12.10;;;11.20;98.30;;;;;;4089912;29;20477;-82
2021/05/14 06:58:59;;;;;;;13.97;10.43;;;11.30;98.30;;;;;;4087772;28;20481;-85
2021/05/14 07:01:01;;;;;;;21.00;11.70;;;11.30;98.30;;;;;;4089578;28;20553;-82
2021/05/14 07:03:04;;;;;;;24.73;11.47;;;11.20;98.30;;;;;;4087484;29;20842;-81
2021/05/14 07:05:09;;;;;;;19.20;11.27;;;11.30;98.30;;;;;;4088648;28;20487;-83
2021/05/14 07:07:12;;;;;;;18.33;11.87;;;11.30;98.30;;;;;;4088078;28;20481;-81
2021/05/14 07:09:14;;;;;;;21.73;11.90;;;11.20;98.30;;;;;;4088332;28;20513;-83
2021/05/14 07:11:19;;;;;;;20.77;11.13;;;11.20;98.30;;;;;;4089762;28;20577;-83
2021/05/14 07:13:21;;;;;;;21.13;11.33;;;11.20;98.30;;;;;;4089486;29;20992;-83
2021/05/14 07:15:28;;;;;;;20.00;12.00;;;11.10;98.30;;;;;;4088460;28;20480;-83
2021/05/14 07:17:31;;;;;;;17.93;10.53;;;11.20;98.30;;;;;;4089716;28;21026;-81
2021/05/14 07:19:34;;;;;;;22.27;11.50;;;11.20;98.30;;;;;;4088922;28;20958;-83
2021/05/14 07:21:38;;;;;;;29.83;17.93;;;11.20;98.30;;;;;;4088954;29;20480;-83
2021/05/14 07:23:41;;;;;;;19.80;13.07;;;11.10;98.30;;;;;;4088513;28;20516;-83
2021/05/14 07:25:43;;;;;;;20.53;11.17;;;11.00;98.30;;;;;;4087992;28;20473;-83
2021/05/14 07:27:46;;;;;;;19.40;9.80;;;11.00;98.30;;;;;;4088888;29;20477;-82
2021/05/14 07:29:49;;;;;;;22.07;10.80;;;10.90;98.30;;;;;;4088821;28;21163;-82
2021/05/14 07:31:52;;;;;;;26.80;10.53;;;10.90;98.30;;;;;;4088335;28;20469;-82
2021/05/14 07:33:54;;;;;;;16.77;11.13;;;10.90;98.30;;;;;;4087861;28;20555;-82
2021/05/14 07:35:57;;;;;;;14.57;9.80;;;10.90;98.30;;;;;;4087568;29;20572;-82
2021/05/14 07:38:00;;;;;;;21.93;11.00;;;10.80;98.30;;;;;;4088934;29;20478;-82
2021/05/14 07:40:04;;;;;;;21.43;11.83;;;10.80;98.30;;;;;;4088532;29;20489;-82
2021/05/14 07:42:06;;;;;;;27.40;11.00;;;10.80;98.30;;;;;;4087569;28;20502;-83
2021/05/14 07:44:09;;;;;;;18.20;9.43;;;10.80;98.30;;;;;;4087914;29;20494;-83
2021/05/14 07:46:11;;;;;;;16.40;9.57;;;10.90;98.30;;;;;;4088632;29;20482;-82
2021/05/14 07:48:20;;;;;;;17.80;10.53;;;11.00;98.30;;;;;;4088813;28;20966;-83
2021/05/14 07:50:23;;;;;;;14.90;9.23;;;11.10;98.30;;;;;;4088255;28;20527;-83
2021/05/14 07:52:25;;;;;;;12.10;9.17;;;11.10;98.30;;;;;;4088657;28;20465;-82
2021/05/14 07:54:29;;;;;;;14.90;8.90;;;11.10;98.30;;;;;;4087805;29;20504;-82
2021/05/14 07:56:31;;;;;;;21.90;10.17;;;11.00;98.30;;;;;;4088355;29;20474;-81
2021/05/14 07:58:34;;;;;;;18.03;10.60;;;10.80;98.30;;;;;;4088214;29;20474;-83
2021/05/14 08:00:37;;;;;;;21.60;9.93;;;10.80;98.30;;;;;;4087696;29;20494;-83
2021/05/14 08:02:39;;;;;;;14.13;10.40;;;11.00;98.30;;;;;;4088160;28;20513;-83
2021/05/14 08:04:41;;;;;;;19.13;10.30;;;11.10;98.30;;;;;;4088805;28;20500;-82
2021/05/14 08:06:44;;;;;;;25.73;10.17;;;11.00;98.30;;;;;;4095045;28;20470;-80
2021/05/14 08:08:47;;;;;;;24.70;11.03;;;11.00;98.30;;;;;;4106835;28;20473;-80
2021/05/14 08:10:54;;;;;;;20.23;10.30;;;11.00;98.30;;;;;;4106488;28;20481;-80
2021/05/14 08:12:58;;;;;;;16.90;9.30;;;11.00;98.30;;;;;;4105991;29;20442;-80
2021/05/14 08:15:02;;;;;;;16.63;9.10;;;11.00;98.30;;;;;;4106107;28;20524;-81
2021/05/14 08:17:04;;;;;;;16.03;11.53;;;11.10;98.30;;;;;;4106852;29;20536;-80
2021/05/14 08:19:11;;;;;;;20.80;10.27;;;10.90;98.30;;;;;;4105927;28;20509;-81
2021/05/14 08:21:13;;;;;;;15.97;9.50;;;11.00;98.30;;;;;;4099340;29;20538;-83
2021/05/14 08:23:19;;;;;;;16.20;10.10;;;10.90;98.30;;;;;;4090563;29;20490;-82
2021/05/14 08:25:22;;;;;;;16.47;9.13;;;10.90;98.30;;;;;;4090545;29;20457;-81
2021/05/14 08:27:28;;;;;;;21.17;9.17;;;10.90;98.30;;;;;;4091843;28;20480;-82
2021/05/14 08:29:30;;;;;;;19.80;8.73;;;10.90;98.30;;;;;;4091583;28;20477;-82
2021/05/14 08:31:35;;;;;;;17.80;10.00;;;10.90;98.30;;;;;;4091819;29;20495;-82
2021/05/14 08:33:37;;;;;;;16.33;8.97;;;10.80;98.30;;;;;;4090967;29;20484;-82
2021/05/14 08:35:40;;;;;;;16.10;9.47;;;10.80;98.30;;;;;;4090056;29;20488;-82
2021/05/14 08:37:46;;;;;;;12.50;7.40;;;10.90;98.30;;;;;;4091495;29;20474;-83
2021/05/14 08:39:50;;;;;;;15.20;8.33;;;10.90;98.30;;;;;;4091164;29;20495;-82
2021/05/14 08:41:53;;;;;;;17.97;9.13;;;10.90;98.30;;;;;;4090859;29;20889;-82
2021/05/14 08:43:59;;;;;;;19.77;9.13;;;10.90;98.30;;;;;;4090243;29;20525;-82
2021/05/14 08:46:03;;;;;;;17.03;9.40;;;10.90;98.30;;;;;;4090879;29;20480;-83
2021/05/14 08:48:12;;;;;;;22.63;9.63;;;10.90;98.30;;;;;;4090916;29;20484;-82
2021/05/14 08:50:15;;;;;;;17.93;8.50;;;11.10;98.30;;;;;;4091442;29;20548;-81
2021/05/14 08:52:20;;;;;;;17.33;8.80;;;11.10;98.30;;;;;;4091154;28;20474;-83
2021/05/14 08:54:22;;;;;;;13.90;7.10;;;11.10;98.30;;;;;;4089993;29;20879;-83
2021/05/14 08:56:24;;;;;;;8.47;7.67;;;11.10;98.30;;;;;;4089790;29;20561;-82
2021/05/14 08:58:27;;;;;;;15.60;8.07;;;11.10;98.30;;;;;;4090447;28;20476;-83
2021/05/14 09:00:31;;;;;;;22.77;8.40;;;11.20;98.30;;;;;;4091288;28;20547;-83
2021/05/14 09:02:34;;;;;;;17.13;8.23;;;11.30;98.30;;;;;;4090486;28;20503;-82
2021/05/14 09:04:36;;;;;;;19.50;8.07;;;11.30;98.30;;;;;;4090035;28;20497;-83
2021/05/14 09:06:40;;;;;;;17.70;8.93;;;11.30;98.30;;;;;;4090702;28;20474;-81
2021/05/14 09:08:56;;;;;;;18.80;8.70;;;11.30;98.30;;;;;;4090256;28;21063;-83
2021/05/14 09:10:59;;;;;;;21.10;11.07;;;11.20;98.30;;;;;;4091895;28;20567;-83
2021/05/14 09:13:10;;;;;;;15.40;8.17;;;11.10;98.30;;;;;;4091377;29;20963;-82
2021/05/14 09:15:24;;;;;;;17.47;8.87;;;11.20;98.30;;;;;;4090842;29;20481;-81
2021/05/14 09:17:28;;;;;;;11.53;7.40;;;11.30;98.30;;;;;;4091088;29;20859;-81
2021/05/14 09:19:31;;;;;;;10.60;8.40;;;11.30;98.30;;;;;;4091531;28;20856;-82
2021/05/14 09:21:33;;;;;;;14.77;8.27;;;11.30;98.30;;;;;;4090920;29;20469;-82
2021/05/14 09:23:38;;;;;;;16.73;9.17;;;11.30;98.30;;;;;;4090716;28;20500;-83
2021/05/14 09:25:50;;;;;;;16.50;8.70;;;11.40;98.30;;;;;;4090935;28;20528;-83
2021/05/14 09:27:52;;;;;;;16.77;8.47;;;11.40;98.30;;;;;;4091253;28;20481;-83
2021/05/14 09:29:57;;;;;;;15.70;9.27;;;11.30;98.30;;;;;;4089740;28;20559;-82
2021/05/14 09:32:18;;;;;;;13.83;7.80;;;11.20;98.30;;;;;;4088583;28;20473;-82
2021/05/14 09:34:32;;;;;;;22.83;9.90;;;11.20;98.30;;;;;;4089078;29;20535;-83
2021/05/14 09:36:39;;;;;;;11.70;8.23;;;11.30;98.30;;;;;;4091039;29;20488;-82
2021/05/14 09:38:47;;;;;;;23.53;10.60;;;11.30;98.30;;;;;;4090454;29;20479;-81
2021/05/14 09:40:49;;;;;;;16.70;9.13;;;11.30;98.30;;;;;;4090608;28;20492;-81
2021/05/14 09:43:00;;;;;;;17.03;9.67;;;11.20;98.30;;;;;;4090429;29;20496;-82
2021/05/14 09:45:17;;;;;;;27.97;10.20;;;11.10;98.30;;;;;;4089459;29;20556;-83
2021/05/14 09:47:30;;;;;;;20.03;9.20;;;11.10;98.30;;;;;;4089501;29;20477;-83
2021/05/14 09:49:34;;;;;;;20.00;9.80;;;11.00;98.30;;;;;;4091161;29;20499;-82
2021/05/14 09:51:47;;;;;;;18.77;9.67;;;10.90;98.30;;;;;;4088946;29;20480;-82
2021/05/14 09:53:50;;;;;;;17.37;9.80;;;10.80;98.30;;;;;;4089971;29;20491;-80
2021/05/14 09:55:58;;;;;;;24.70;12.20;;;10.80;98.30;;;;;;4089679;29;20480;-83
2021/05/14 09:58:03;;;;;;;19.23;10.27;;;10.80;98.30;;;;;;4090444;29;20484;-83
2021/05/14 10:00:09;;;;;;;20.27;10.33;;;10.90;98.30;;;;;;4090238;28;20508;-83
2021/05/14 10:02:23;;;;;;;17.23;9.40;;;10.90;98.30;;;;;;4089672;29;20480;-83
2021/05/14 10:04:27;;;;;;;22.73;10.77;;;10.90;98.30;;;;;;4089287;29;20533;-83
2021/05/14 10:06:32;;;;;;;21.97;10.80;;;10.90;98.30;;;;;;4089723;28;20477;-83
2021/05/14 10:08:35;;;;;;;20.03;10.17;;;10.90;98.30;;;;;;4089948;29;20479;-82
2021/05/14 10:10:40;;;;;;;18.80;10.60;;;10.90;98.30;;;;;;4089865;28;20465;-83
2021/05/14 10:12:42;;;;;;;18.70;10.33;;;10.90;98.30;;;;;;4089652;29;20557;-83
2021/05/14 10:14:45;;;;;;;24.47;9.80;;;10.90;98.30;;;;;;4089054;28;20476;-82
2021/05/14 10:16:48;;;;;;;19.50;10.13;;;11.00;98.30;;;;;;4089089;28;20518;-82
2021/05/14 10:18:58;;;;;;;19.83;9.97;;;10.90;98.30;;;;;;4089828;29;20569;-83
2021/05/14 10:21:07;;;;;;;24.27;10.70;;;10.80;98.30;;;;;;4089060;29;20959;-82
2021/05/14 10:23:30;;;;;;;20.27;13.17;;;10.90;98.30;;;;;;4089522;29;20580;-82
2021/05/14 10:25:49;;;;;;;18.63;11.03;;;11.00;98.30;;;;;;4089135;29;20474;-83
2021/05/14 10:27:51;;;;;;;17.40;8.77;;;11.00;98.30;;;;;;4088556;29;20482;-83
2021/05/14 10:29:55;;;;;;;17.43;10.80;;;11.10;98.30;;;;;;4089475;28;20967;-83
2021/05/14 10:31:58;;;;;;;22.47;10.03;;;11.00;98.30;;;;;;4089091;29;20468;-82
2021/05/14 10:34:13;;;;;;;17.53;9.60;;;11.00;98.30;;;;;;4089179;28;20485;-82
2021/05/14 10:36:45;;;;;;;15.33;9.60;;;11.00;98.30;;;;;;4089731;29;20477;-82